Time;durP1;ratioP1;P1;durP2;ratioP2;P2;SDS_P1;SDS_P2;PMS_P1;PMS_P2;Temp;Humidity;BMP_temperature;BMP_pressure;BME280_temperature;BME280_humidity;BME280_pressure;Samples;Min_cycle;Max_cycle;Signal;HPM_P1;HPM_P2
2023/09/18 00:00:13;;;;;;;7.00;6.50;;;;;;;15.30;100.00;99338.38;4828332;29;20212;-88
2023/09/18 00:02:41;;;;;;;7.63;6.90;;;;;;;15.26;100.00;99336.44;4838786;29;20681;-88
2023/09/18 00:05:14;;;;;;;7.43;6.83;;;;;;;15.24;100.00;99335.91;4861512;29;20209;-88
2023/09/18 00:07:43;;;;;;;7.50;6.90;;;;;;;15.22;100.00;99338.84;4846770;29;20231;-88
2023/09/18 00:10:13;;;;;;;8.27;7.57;;;;;;;15.21;100.00;99341.84;4840887;29;20228;-88
2023/09/18 00:12:41;;;;;;;8.17;7.47;;;;;;;15.17;100.00;99344.22;4857533;29;20299;-88
2023/09/18 00:15:10;;;;;;;8.47;7.77;;;;;;;15.14;100.00;99344.72;4858673;29;20229;-89
2023/09/18 00:17:38;;;;;;;8.30;7.70;;;;;;;15.11;100.00;99341.75;4827982;29;20209;-89
2023/09/18 00:20:06;;;;;;;8.43;7.60;;;;;;;15.06;100.00;99337.09;4838827;29;20204;-88
2023/09/18 00:22:36;;;;;;;8.13;7.43;;;;;;;15.05;100.00;99337.34;4827272;29;20205;-89
2023/09/18 00:25:14;;;;;;;7.80;7.10;;;;;;;15.02;100.00;99325.19;4844223;29;20230;-88
2023/09/18 00:27:43;;;;;;;8.40;7.57;;;;;;;15.01;100.00;99333.53;4855289;29;20285;-88
2023/09/18 00:30:15;;;;;;;8.27;7.57;;;;;;;14.97;100.00;99328.66;4851464;29;20319;-88
2023/09/18 00:32:47;;;;;;;8.17;7.57;;;;;;;14.99;100.00;99334.59;4833572;29;20245;-89
2023/09/18 00:35:14;;;;;;;9.77;9.00;;;;;;;14.96;100.00;99328.91;4825378;29;20205;-88
2023/09/18 00:37:45;;;;;;;9.63;8.83;;;;;;;14.91;100.00;99326.16;4842316;29;20217;-89
2023/09/18 00:40:16;;;;;;;9.40;8.60;;;;;;;14.86;100.00;99326.94;4832040;29;20209;-87
2023/09/18 00:42:45;;;;;;;9.80;9.00;;;;;;;14.88;100.00;99334.78;4835090;29;20616;-88
2023/09/18 00:45:16;;;;;;;9.33;8.63;;;;;;;14.84;100.00;99328.22;4838605;29;20278;-88
2023/09/18 00:47:44;;;;;;;10.13;9.33;;;;;;;14.78;100.00;99329.28;4816980;29;20205;-88
2023/09/18 00:50:14;;;;;;;9.53;8.73;;;;;;;14.78;100.00;99323.88;4832937;29;20321;-88
2023/09/18 00:52:42;;;;;;;10.07;9.27;;;;;;;14.75;100.00;99325.19;4836998;29;20209;-89
2023/09/18 00:55:19;;;;;;;9.50;8.63;;;;;;;14.70;100.00;99319.72;4840641;29;20215;-89
2023/09/18 00:57:50;;;;;;;9.33;8.43;;;;;;;14.67;100.00;99317.56;4845191;29;20242;-89
2023/09/18 01:00:18;;;;;;;10.00;9.20;;;;;;;14.65;100.00;99311.59;4859888;29;20734;-89
2023/09/18 01:02:48;;;;;;;9.77;9.03;;;;;;;14.64;100.00;99318.06;4830108;29;20208;-88
2023/09/18 01:05:20;;;;;;;10.53;9.73;;;;;;;14.65;100.00;99318.88;4845430;29;20208;-88
2023/09/18 01:07:47;;;;;;;10.47;9.57;;;;;;;14.64;100.00;99309.97;4846032;29;20216;-89
2023/09/18 01:10:16;;;;;;;9.93;9.23;;;;;;;14.63;100.00;99308.34;4835866;29;20248;-89
2023/09/18 01:12:54;;;;;;;10.83;9.93;;;;;;;14.64;100.00;99301.06;4835228;29;20216;-89
2023/09/18 01:15:27;;;;;;;10.63;9.73;;;;;;;14.62;100.00;99300.50;4831306;29;20273;-89
2023/09/18 01:17:57;;;;;;;10.10;9.30;;;;;;;14.57;100.00;99290.47;4835105;29;20266;-89
2023/09/18 01:20:33;;;;;;;9.60;8.90;;;;;;;14.57;100.00;99303.16;4842372;29;20213;-89
2023/09/18 01:23:06;;;;;;;10.93;10.00;;;;;;;14.54;100.00;99294.50;4832896;29;20213;-91
2023/09/18 01:25:35;;;;;;;10.83;9.93;;;;;;;14.53;100.00;99292.06;4852961;29;20288;-89
2023/09/18 01:28:03;;;;;;;10.97;10.13;;;;;;;14.47;100.00;99291.19;4845065;29;20209;-89
2023/09/18 01:30:34;;;;;;;11.40;10.50;;;;;;;14.43;100.00;99287.38;4827151;29;20714;-89
2023/09/18 01:33:04;;;;;;;10.60;9.80;;;;;;;14.40;100.00;99285.19;4835338;29;20212;-89
2023/09/18 01:35:33;;;;;;;10.60;9.77;;;;;;;14.38;100.00;99279.22;4844172;29;20212;-90
2023/09/18 01:38:06;;;;;;;10.63;9.63;;;;;;;14.37;100.00;99274.91;4841554;29;20214;-90
2023/09/18 01:40:35;;;;;;;10.07;9.33;;;;;;;14.34;100.00;99282.66;4839298;29;20325;-88
2023/09/18 01:43:03;;;;;;;10.50;9.70;;;;;;;14.33;100.00;99281.81;4839865;29;20260;-90
2023/09/18 01:45:43;;;;;;;10.93;9.97;;;;;;;14.29;100.00;99277.19;4855840;29;20240;-93
2023/09/18 01:48:10;;;;;;;11.07;10.23;;;;;;;14.24;100.00;99269.88;4827081;29;20220;-89
2023/09/18 01:50:41;;;;;;;10.83;9.93;;;;;;;14.24;100.00;99263.66;4827158;29;20244;-89
2023/09/18 01:53:12;;;;;;;11.10;10.10;;;;;;;14.22;100.00;99266.63;4830624;29;20297;-89
2023/09/18 01:55:42;;;;;;;10.57;9.77;;;;;;;14.19;100.00;99263.59;4841188;29;20216;-91
2023/09/18 01:58:09;;;;;;;11.07;10.13;;;;;;;14.16;100.00;99264.13;4844735;29;20192;-89
2023/09/18 02:00:37;;;;;;;10.70;9.80;;;;;;;14.14;100.00;99263.56;4836686;29;20213;-90
2023/09/18 02:03:18;;;;;;;10.70;9.80;;;;;;;14.11;100.00;99264.88;4842153;29;20209;-90
2023/09/18 02:06:05;;;;;;;10.87;9.87;;;;;;;14.11;100.00;99271.06;4831245;29;20204;-90
2023/09/18 02:08:35;;;;;;;10.27;9.47;;;;;;;14.08;100.00;99260.00;4834967;29;20335;-90
2023/09/18 02:11:05;;;;;;;9.93;9.13;;;;;;;14.06;100.00;99262.09;4837768;29;20240;-89
2023/09/18 02:13:36;;;;;;;10.23;9.33;;;;;;;14.00;100.00;99258.53;4837671;29;20205;-90
2023/09/18 02:16:04;;;;;;;10.17;9.37;;;;;;;14.00;100.00;99263.91;4850651;29;20304;-90
2023/09/18 02:18:38;;;;;;;10.37;9.57;;;;;;;13.98;100.00;99268.75;4838131;29;20692;-90
2023/09/18 02:21:06;;;;;;;10.23;9.33;;;;;;;13.95;100.00;99260.38;4835866;29;20213;-89
2023/09/18 02:23:34;;;;;;;10.43;9.53;;;;;;;13.93;100.00;99259.78;4833946;29;20204;-89
2023/09/18 02:26:03;;;;;;;10.50;9.60;;;;;;;13.91;100.00;99253.84;4835378;29;20217;-90
2023/09/18 02:28:33;;;;;;;10.03;9.33;;;;;;;13.89;100.00;99254.09;4835476;29;20208;-90
2023/09/18 02:31:08;;;;;;;10.87;9.97;;;;;;;13.87;100.00;99247.31;4837464;29;20736;-90
2023/09/18 02:33:39;;;;;;;9.77;8.97;;;;;;;13.86;100.00;99251.06;4843473;29;20223;-90
2023/09/18 02:36:08;;;;;;;9.90;9.20;;;;;;;13.84;100.00;99258.59;4829570;29;20745;-89
2023/09/18 02:38:38;;;;;;;10.37;9.57;;;;;;;13.82;100.00;99249.94;4834282;29;20493;-90
2023/09/18 02:41:13;;;;;;;10.00;9.10;;;;;;;13.77;100.00;99253.38;4844881;29;20216;-89
2023/09/18 02:44:01;;;;;;;10.37;9.57;;;;;;;13.74;100.00;99245.81;4845890;29;20212;-89
2023/09/18 02:46:29;;;;;;;11.30;10.33;;;;;;;13.75;100.00;99246.63;4832941;29;20307;-88
2023/09/18 02:48:58;;;;;;;10.60;9.70;;;;;;;13.73;100.00;99249.56;4837824;29;20197;-89
2023/09/18 02:51:31;;;;;;;10.50;9.63;;;;;;;13.72;100.00;99253.31;4822037;29;20229;-90
2023/09/18 02:54:00;;;;;;;10.63;9.83;;;;;;;13.72;100.00;99244.47;4842730;29;20213;-89
2023/09/18 02:56:31;;;;;;;10.27;9.47;;;;;;;13.68;100.00;99247.63;4819161;29;20316;-89
2023/09/18 02:59:04;;;;;;;10.50;9.60;;;;;;;13.67;100.00;99247.88;4836248;29;20213;-90
2023/09/18 03:01:32;;;;;;;10.07;9.27;;;;;;;13.64;100.00;99243.00;4846973;29;20236;-89
2023/09/18 03:04:03;;;;;;;10.03;9.23;;;;;;;13.60;100.00;99239.97;4834475;29;20211;-90
2023/09/18 03:06:37;;;;;;;10.63;9.70;;;;;;;13.60;100.00;99236.47;4839983;29;20283;-91
2023/09/18 03:09:06;;;;;;;10.20;9.40;;;;;;;13.59;100.00;99241.03;4841149;29;20219;-88
2023/09/18 03:50:47;;;;;;;10.70;9.80;;;;;;;13.36;100.00;99192.81;3849217;23;20730;-86
2023/09/18 03:53:22;;;;;;;10.90;9.90;;;;;;;13.37;100.00;99191.75;4840897;29;20200;-86
2023/09/18 04:10:15;;;;;;;10.77;9.87;;;;;;;13.49;100.00;99170.94;5417054;23;20318;-87
2023/09/18 04:12:46;;;;;;;10.53;9.73;;;;;;;13.52;100.00;99181.22;4861491;29;20294;-87
2023/09/18 04:15:15;;;;;;;10.97;10.13;;;;;;;13.54;100.00;99179.06;4845300;29;20216;-88
2023/09/18 04:17:43;;;;;;;10.43;9.53;;;;;;;13.55;100.00;99174.50;4845861;29;20241;-88
2023/09/18 04:20:16;;;;;;;10.97;10.00;;;;;;;13.56;100.00;99173.44;4851580;29;20234;-87
2023/09/18 04:22:51;;;;;;;11.87;10.77;;;;;;;13.76;100.00;99180.97;4839743;29;20257;-88
2023/09/18 04:25:27;;;;;;;11.50;10.60;;;;;;;13.93;100.00;99179.00;4854776;29;20227;-88
2023/09/18 04:27:57;;;;;;;13.10;12.07;;;;;;;14.21;100.00;99180.66;4859386;29;20199;-88
2023/09/18 04:30:28;;;;;;;14.30;12.90;;;;;;;14.37;100.00;99187.88;4847074;29;20264;-88
2023/09/18 04:32:58;;;;;;;13.37;12.10;;;;;;;14.48;100.00;99193.09;4846491;29;20207;-88
2023/09/18 04:35:31;;;;;;;12.17;11.13;;;;;;;14.43;100.00;99189.53;4838831;29;20704;-88
2023/09/18 04:38:01;;;;;;;10.67;9.87;;;;;;;14.43;100.00;99184.94;4859073;29;20224;-91
2023/09/18 04:40:32;;;;;;;10.27;9.43;;;;;;;14.39;100.00;99174.94;4857554;29;20200;-90
2023/09/18 04:43:04;;;;;;;9.83;9.07;;;;;;;14.39;100.00;99183.84;4847124;29;20283;-89
2023/09/18 04:45:31;;;;;;;9.70;8.90;;;;;;;14.39;100.00;99183.84;4851405;29;20243;-90
2023/09/18 04:47:58;;;;;;;9.60;8.83;;;;;;;14.37;100.00;99185.19;4847161;29;20678;-89
2023/09/18 04:50:31;;;;;;;9.80;9.03;;;;;;;14.34;100.00;99164.06;4848601;29;20293;-90
2023/09/18 04:52:59;;;;;;;10.17;9.27;;;;;;;14.33;100.00;99151.66;4835325;29;20273;-90
2023/09/18 04:55:31;;;;;;;9.73;8.70;;;;;;;14.34;100.00;99156.00;4842738;29;20213;-89
2023/09/18 04:57:59;;;;;;;10.37;9.57;;;;;;;14.35;100.00;99144.97;4822973;29;20209;-89
2023/09/18 05:00:29;;;;;;;10.77;9.97;;;;;;;14.39;100.00;99140.72;4840720;29;20209;-89
2023/09/18 05:03:01;;;;;;;11.13;10.27;;;;;;;14.48;100.00;99144.56;4837886;29;20296;-89
2023/09/18 05:05:32;;;;;;;12.10;11.00;;;;;;;14.64;100.00;99147.41;4840307;29;20265;-89
2023/09/18 05:08:07;;;;;;;12.07;11.07;;;;;;;14.83;100.00;99154.03;4844785;29;20303;-89
2023/09/18 05:10:35;;;;;;;12.63;11.53;;;;;;;14.95;100.00;99158.16;4826060;29;20240;-90
2023/09/18 05:13:07;;;;;;;12.37;11.33;;;;;;;15.04;100.00;99154.97;4829742;29;20293;-89
2023/09/18 05:15:35;;;;;;;13.47;12.17;;;;;;;15.26;100.00;99153.75;4840044;29;20212;-89
2023/09/18 05:18:06;;;;;;;14.60;13.40;;;;;;;15.57;100.00;99160.16;4844712;29;20205;-89
2023/09/18 05:20:35;;;;;;;14.77;13.47;;;;;;;15.82;100.00;99152.16;4835527;29;20209;-90
2023/09/18 05:23:06;;;;;;;15.00;13.53;;;;;;;16.06;100.00;99166.00;4817657;29;20261;-89
2023/09/18 05:25:37;;;;;;;14.63;13.23;;;;;;;16.26;100.00;99159.84;4827971;29;20751;-89
2023/09/18 05:28:08;;;;;;;13.87;12.67;;;;;;;16.37;100.00;99166.09;4839616;29;20254;-89
2023/09/18 05:30:42;;;;;;;14.27;12.97;;;;;;;16.48;100.00;99159.59;4825379;29;20240;-90
2023/09/18 05:33:10;;;;;;;13.73;12.63;;;;;;;16.56;100.00;99157.16;4856360;29;20204;-90
2023/09/18 05:35:43;;;;;;;13.73;12.57;;;;;;;16.71;100.00;99159.91;4842874;29;20262;-89
2023/09/18 05:38:17;;;;;;;13.60;12.40;;;;;;;16.83;100.00;99148.00;4841464;29;20243;-89
2023/09/18 05:40:49;;;;;;;13.13;11.90;;;;;;;16.95;100.00;99145.81;4841869;29;20216;-89
2023/09/18 05:43:17;;;;;;;12.57;11.57;;;;;;;17.02;100.00;99135.53;4840382;29;20662;-87
2023/09/18 05:45:45;;;;;;;12.10;11.03;;;;;;;17.10;100.00;99114.13;4844195;29;20201;-89
2023/09/18 05:48:13;;;;;;;11.93;10.93;;;;;;;17.16;100.00;99104.94;4825741;29;20202;-89
2023/09/18 05:50:42;;;;;;;12.10;11.10;;;;;;;17.22;100.00;99111.13;4838179;29;20773;-89
2023/09/18 05:53:11;;;;;;;11.63;10.73;;;;;;;17.32;100.00;99113.78;4823400;29;20209;-89
2023/09/18 05:55:39;;;;;;;11.67;10.67;;;;;;;17.45;100.00;99121.31;4861114;29;20600;-89
2023/09/18 05:58:08;;;;;;;11.67;10.67;;;;;;;17.55;100.00;99110.47;4845926;29;20220;-90
2023/09/18 06:00:36;;;;;;;11.20;10.20;;;;;;;17.70;100.00;99098.78;4841878;29;20254;-88
2023/09/18 06:03:07;;;;;;;11.50;10.50;;;;;;;17.86;100.00;99083.25;4848104;29;20224;-88
2023/09/18 06:05:36;;;;;;;11.13;10.07;;;;;;;18.05;100.00;99081.53;4829456;29;20741;-89
2023/09/18 06:08:08;;;;;;;10.77;9.87;;;;;;;18.23;100.00;99078.13;4835420;29;20221;-89
2023/09/18 06:10:37;;;;;;;10.27;9.47;;;;;;;18.44;100.00;99082.28;4825760;29;20241;-89
2023/09/18 06:13:07;;;;;;;10.27;9.47;;;;;;;18.57;100.00;99075.44;4837361;29;20215;-88
2023/09/18 06:15:43;;;;;;;10.23;9.37;;;;;;;18.71;100.00;99067.47;4822127;29;20296;-89
2023/09/18 06:18:13;;;;;;;9.70;8.93;;;;;;;18.82;100.00;99069.78;4840000;29;20253;-88
2023/09/18 06:20:43;;;;;;;9.83;9.03;;;;;;;19.01;100.00;99074.47;4840765;29;20240;-88
2023/09/18 06:23:12;;;;;;;9.50;8.70;;;;;;;19.12;100.00;99075.97;4851968;29;20206;-88
2023/09/18 06:25:40;;;;;;;9.77;9.03;;;;;;;19.25;100.00;99076.09;4848784;29;20232;-89
2023/09/18 06:28:07;;;;;;;9.23;8.53;;;;;;;19.30;100.00;99078.75;4819751;29;20210;-88
2023/09/18 06:30:36;;;;;;;9.33;8.53;;;;;;;19.43;100.00;99073.72;4840399;29;20227;-88
2023/09/18 06:33:04;;;;;;;9.50;8.53;;;;;;;19.55;100.00;99066.78;4828604;29;20221;-88
2023/09/18 06:35:34;;;;;;;9.13;8.30;;;;;;;19.69;100.00;99064.19;4854793;29;20225;-88
2023/09/18 06:38:15;;;;;;;8.50;7.70;;;;;;;19.83;100.00;99059.59;4854620;29;20215;-89
2023/09/18 06:40:43;;;;;;;9.07;8.27;;;;;;;20.00;100.00;99057.19;4832789;29;20201;-88
2023/09/18 06:43:14;;;;;;;8.50;7.77;;;;;;;20.13;100.00;99058.34;4828710;29;20279;-88
2023/09/18 06:45:42;;;;;;;8.27;7.57;;;;;;;20.33;100.00;99062.69;4838012;29;20565;-88
2023/09/18 06:48:13;;;;;;;8.47;7.87;;;;;;;20.45;100.00;99044.81;4844536;29;21467;-87
2023/09/18 06:50:45;;;;;;;9.63;8.53;;;;;;;20.66;100.00;99056.16;4833579;29;20324;-88
2023/09/18 06:53:20;;;;;;;8.63;7.47;;;;;;;20.84;100.00;99049.84;4837123;29;20264;-88
2023/09/18 06:55:48;;;;;;;8.57;7.67;;;;;;;21.03;100.00;99050.56;4832478;29;20216;-87
2023/09/18 06:58:18;;;;;;;7.53;6.93;;;;;;;21.23;100.00;99048.59;4831694;29;20216;-88
2023/09/18 07:00:46;;;;;;;9.10;7.13;;;;;;;21.35;100.00;99041.50;4836902;29;20300;-87
2023/09/18 07:03:18;;;;;;;7.47;6.60;;;;;;;21.48;100.00;99045.31;4839392;29;20224;-88
2023/09/18 07:05:49;;;;;;;7.63;6.93;;;;;;;21.67;100.00;99056.91;4839722;29;20218;-88
2023/09/18 07:08:23;;;;;;;7.20;6.60;;;;;;;21.77;100.00;99053.94;4836358;29;20284;-87
2023/09/18 07:10:51;;;;;;;7.63;6.78;;;;;;;21.96;100.00;99048.38;4833495;29;20339;-89
2023/09/18 07:13:19;;;;;;;7.28;6.57;;;;;;;22.08;100.00;99040.44;4846457;29;20209;-87
2023/09/18 07:15:53;;;;;;;7.78;6.78;;;;;;;22.17;100.00;99049.50;4842008;29;20204;-87
2023/09/18 07:18:20;;;;;;;6.97;6.28;;;;;;;22.32;100.00;99042.88;4825277;29;20201;-87
2023/09/18 07:20:53;;;;;;;8.05;6.47;;;;;;;22.48;100.00;99044.13;4840581;29;20209;-88
2023/09/18 07:23:21;;;;;;;6.90;6.30;;;;;;;22.60;100.00;99040.78;4832217;29;20205;-88
2023/09/18 07:25:49;;;;;;;6.65;6.05;;;;;;;22.65;100.00;99027.81;4836128;29;20236;-87
2023/09/18 07:28:20;;;;;;;6.30;5.78;;;;;;;22.70;100.00;99032.38;4846141;29;20198;-88
2023/09/18 07:30:49;;;;;;;8.10;6.03;;;;;;;22.80;100.00;99034.84;4824642;29;20217;-87
2023/09/18 07:33:26;;;;;;;6.95;6.03;;;;;;;22.94;100.00;99037.47;4844219;29;20734;-88
2023/09/18 07:35:54;;;;;;;9.23;5.90;;;;;;;22.99;100.00;99038.16;4838978;29;20304;-88
2023/09/18 07:38:25;;;;;;;6.82;5.85;;;;;;;23.13;100.00;99041.56;4835830;29;20215;-88
2023/09/18 07:40:52;;;;;;;6.28;5.50;;;;;;;23.35;100.00;99045.34;4855244;29;20303;-87
2023/09/18 07:43:26;;;;;;;8.00;5.78;;;;;;;23.46;100.00;99042.03;4844529;29;20220;-88
2023/09/18 07:46:02;;;;;;;6.20;5.60;;;;;;;23.71;100.00;99043.19;4826137;29;20218;-89
2023/09/18 07:48:29;;;;;;;7.07;6.03;;;;;;;23.90;100.00;99037.41;4830677;29;20209;-88
2023/09/18 07:51:03;;;;;;;6.15;5.50;;;;;;;24.06;100.00;99039.34;4846956;29;20283;-88
2023/09/18 07:53:32;;;;;;;5.93;5.35;;;;;;;24.23;100.00;99035.81;4842849;29;20673;-88
2023/09/18 07:56:08;;;;;;;7.57;5.38;;;;;;;24.37;100.00;99024.69;4844915;29;20216;-87
2023/09/18 07:58:51;;;;;;;5.88;5.25;;;;;;;24.59;100.00;99015.50;4841845;29;20238;-87
2023/09/18 08:01:23;;;;;;;5.40;5.00;;;;;;;24.60;100.00;99011.59;4833778;29;20246;-87
2023/09/18 08:03:51;;;;;;;5.82;5.20;;;;;;;24.67;100.00;99025.59;4846190;29;20214;-88
2023/09/18 08:06:28;;;;;;;8.52;5.10;;;;;;;24.74;100.00;99034.91;4846734;29;20227;-88
2023/09/18 08:09:00;;;;;;;5.07;4.57;;;;;;;24.93;100.00;99018.13;4847018;29;20226;-88
2023/09/18 08:11:28;;;;;;;6.13;4.85;;;;;;;25.04;100.00;99035.81;4838227;29;20232;-88
2023/09/18 08:13:59;;;;;;;5.03;4.63;;;;;;;25.12;100.00;99042.38;4832047;29;20764;-88
2023/09/18 08:16:27;;;;;;;5.95;4.68;;;;;;;25.17;100.00;99025.75;4846609;29;20213;-88
2023/09/18 08:18:58;;;;;;;5.63;5.13;;;;;;;25.30;100.00;99031.00;4838817;29;20204;-89
2023/09/18 08:21:30;;;;;;;10.85;5.45;;;;;;;25.35;100.00;99022.59;4830916;29;20682;-89
2023/09/18 08:23:59;;;;;;;5.90;5.15;;;;;;;25.41;100.00;99013.06;4845577;29;20262;-88
2023/09/18 08:26:28;;;;;;;5.13;4.72;;;;;;;25.51;100.00;99000.09;4842789;29;20663;-89
2023/09/18 08:28:57;;;;;;;6.53;4.85;;;;;;;25.56;100.00;99011.69;4828637;29;20215;-89
2023/09/18 08:31:31;;;;;;;5.60;4.65;;;;;;;25.53;100.00;99019.72;4838132;29;20225;-88
2023/09/18 08:33:59;;;;;;;5.97;4.68;;;;;;;25.59;100.00;99011.03;4840715;29;20234;-88
2023/09/18 08:36:33;;;;;;;5.43;4.70;;;;;;;25.63;100.00;99000.97;4843041;29;20216;-88
2023/09/18 08:39:07;;;;;;;6.15;4.75;;;;;;;25.79;100.00;99003.94;4856395;29;20197;-88
2023/09/18 08:41:42;;;;;;;6.28;4.70;;;;;;;25.90;100.00;99004.34;4837883;29;20208;-88
2023/09/18 08:44:10;;;;;;;6.85;4.93;;;;;;;25.85;100.00;99014.38;4845637;29;20204;-88
2023/09/18 08:46:41;;;;;;;6.80;5.18;;;;;;;26.00;100.00;99017.66;4850822;29;20628;-89
2023/09/18 08:49:14;;;;;;;5.03;4.40;;;;;;;25.96;100.00;99012.03;4823117;29;20213;-89
2023/09/18 08:51:42;;;;;;;5.55;4.93;;;;;;;25.99;100.00;99010.56;4835722;29;20233;-89
2023/09/18 08:54:10;;;;;;;5.43;4.93;;;;;;;25.93;100.00;99009.16;4834052;29;20201;-88
2023/09/18 08:56:38;;;;;;;5.50;5.00;;;;;;;25.98;100.00;98998.78;4840357;29;20208;-88
2023/09/18 08:59:11;;;;;;;5.25;4.85;;;;;;;26.01;100.00;99000.84;4842256;29;20264;-88
2023/09/18 09:01:38;;;;;;;6.32;4.68;;;;;;;26.17;100.00;98988.13;4837346;29;20307;-88
2023/09/18 09:04:05;;;;;;;5.43;4.70;;;;;;;26.23;100.00;98991.47;4839272;29;20308;-88
2023/09/18 09:06:33;;;;;;;5.72;4.97;;;;;;;26.26;100.00;98996.31;4812492;29;20244;-88
2023/09/18 09:09:04;;;;;;;5.03;4.47;;;;;;;26.32;100.00;98986.69;4818411;29;20209;-89
2023/09/18 09:11:34;;;;;;;7.53;4.80;;;;;;;26.22;100.00;98987.91;4833807;29;20328;-88
2023/09/18 09:14:17;;;;;;;5.82;5.00;;;;;;;26.26;100.00;98993.56;4823552;29;20715;-88
2023/09/18 09:16:48;;;;;;;5.18;4.55;;;;;;;26.33;100.00;98984.75;4847205;29;20666;-88
2023/09/18 09:19:17;;;;;;;5.18;4.65;;;;;;;26.39;100.00;98997.13;4834938;29;20228;-88
2023/09/18 09:21:44;;;;;;;8.00;5.03;;;;;;;26.42;100.00;98989.00;4827289;29;20216;-88
2023/09/18 09:24:14;;;;;;;5.03;4.50;;;;;;;26.33;100.00;98991.03;4835937;29;20248;-89
2023/09/18 09:26:42;;;;;;;8.18;4.45;;;;;;;26.36;100.00;98976.66;4844022;29;20193;-89
2023/09/18 09:29:18;;;;;;;7.18;4.60;;;;;;;26.61;100.00;98982.97;4827269;29;20232;-88
2023/09/18 09:31:50;;;;;;;6.13;4.90;;;;;;;26.74;100.00;98970.88;4843182;29;20236;-89
2023/09/18 09:34:26;;;;;;;5.00;4.40;;;;;;;26.89;100.00;98972.16;4830859;29;20216;-88
2023/09/18 09:36:57;;;;;;;6.05;4.70;;;;;;;27.08;100.00;98975.16;4847883;29;20212;-88
2023/09/18 09:39:26;;;;;;;6.10;4.38;;;;;;;27.21;100.00;98953.94;4837756;29;20201;-88
2023/09/18 09:41:53;;;;;;;6.82;4.40;;;;;;;27.22;100.00;98939.06;4831495;29;20204;-87
2023/09/18 09:44:21;;;;;;;5.75;4.38;;;;;;;27.57;100.00;98942.94;4844980;29;20227;-88
2023/09/18 09:46:49;;;;;;;4.93;4.25;;;;;;;27.78;100.00;98937.22;4836065;29;20596;-88
2023/09/18 09:49:23;;;;;;;6.72;4.15;;;;;;;27.91;100.00;98939.56;4835235;29;20209;-88
2023/09/18 09:51:54;;;;;;;5.55;4.10;;;;;;;28.02;100.00;98946.19;4830667;29;20232;-89
2023/09/18 09:54:40;;;;;;;7.10;4.60;;;;;;;27.88;100.00;98929.28;4848736;29;20200;-88
2023/09/18 09:57:16;;;;;;;6.75;4.10;;;;;;;27.92;100.00;98938.44;4837943;29;20763;-88
2023/09/18 09:59:47;;;;;;;6.55;3.97;;;;;;;27.96;100.00;98950.34;4850573;29;20204;-88
2023/09/18 10:02:22;;;;;;;6.50;4.10;;;;;;;28.01;100.00;98941.03;4856244;29;20227;-88
2023/09/18 10:04:50;;;;;;;4.88;3.90;;;;;;;27.95;100.00;98937.72;4844788;29;20268;-88
2023/09/18 10:07:20;;;;;;;4.55;4.07;;;;;;;27.82;100.00;98925.16;4834057;29;20209;-88
2023/09/18 10:09:48;;;;;;;5.00;4.10;;;;;;;27.68;100.00;98915.69;4821287;29;20268;-88
2023/09/18 10:12:20;;;;;;;5.47;4.00;;;;;;;27.70;100.00;98914.22;4838698;29;20449;-88
2023/09/18 10:14:53;;;;;;;7.30;3.95;;;;;;;27.62;100.00;98901.41;4840052;29;20295;-88
2023/09/18 10:17:31;;;;;;;4.85;4.10;;;;;;;27.85;100.00;98894.22;4828292;29;20201;-88
2023/09/18 10:20:23;;;;;;;5.45;4.20;;;;;;;27.91;100.00;98894.72;4824761;29;20270;-89
2023/09/18 10:22:57;;;;;;;4.97;4.10;;;;;;;28.13;100.00;98890.66;4823170;29;20212;-88
2023/09/18 10:25:33;;;;;;;5.70;3.97;;;;;;;28.38;100.00;98881.06;4853510;29;20259;-88
2023/09/18 10:28:02;;;;;;;4.53;4.10;;;;;;;28.38;100.00;98881.84;4833008;29;20678;-88
2023/09/18 10:30:32;;;;;;;4.90;4.10;;;;;;;28.66;100.00;98879.00;4838724;29;20227;-87
2023/09/18 10:33:01;;;;;;;4.30;3.90;;;;;;;28.85;100.00;98887.38;4840167;29;20785;-88
2023/09/18 10:35:32;;;;;;;4.75;3.90;;;;;;;28.74;100.00;98877.28;4838766;29;20200;-88
2023/09/18 10:38:01;;;;;;;5.65;4.45;;;;;;;28.72;100.00;98869.34;4832663;29;20250;-89
2023/09/18 10:40:31;;;;;;;5.65;3.88;;;;;;;28.85;100.00;98872.78;4826504;29;20211;-88
2023/09/18 10:43:03;;;;;;;5.05;4.57;;;;;;;28.72;100.00;98863.84;4842099;29;20205;-88
2023/09/18 10:45:31;;;;;;;4.88;4.43;;;;;;;28.54;100.00;98859.03;4843877;29;20205;-88
2023/09/18 10:47:59;;;;;;;7.03;4.07;;;;;;;28.66;100.00;98858.91;4838530;29;20235;-88
2023/09/18 10:50:27;;;;;;;6.03;4.18;;;;;;;28.84;100.00;98854.63;4822777;29;20255;-88
2023/09/18 10:52:57;;;;;;;5.65;4.47;;;;;;;28.74;100.00;98844.97;4839232;29;20235;-88
2023/09/18 10:55:41;;;;;;;6.20;4.25;;;;;;;28.58;100.00;98848.88;4838140;29;20224;-87
2023/09/18 10:58:09;;;;;;;5.07;4.40;;;;;;;28.57;100.00;98855.53;4835523;29;20291;-88
2023/09/18 11:00:39;;;;;;;5.25;4.75;;;;;;;28.58;100.00;98843.38;4828904;29;20205;-88
2023/09/18 11:03:19;;;;;;;7.13;4.30;;;;;;;28.73;100.00;98850.84;4850562;29;20670;-88
2023/09/18 11:06:15;;;;;;;4.82;4.43;;;;;;;28.63;100.00;98840.34;4845368;29;20290;-88
2023/09/18 11:08:45;;;;;;;4.85;4.20;;;;;;;28.55;100.00;98830.31;4821562;29;20193;-87
2023/09/18 11:11:19;;;;;;;5.10;4.60;;;;;;;28.33;100.00;98835.28;4838793;29;20244;-87
2023/09/18 11:13:49;;;;;;;5.13;4.60;;;;;;;28.37;100.00;98819.66;4850807;29;20212;-87
2023/09/18 11:16:19;;;;;;;4.88;4.50;;;;;;;28.41;100.00;98823.31;4836572;29;20209;-88
2023/09/18 11:18:55;;;;;;;5.20;4.20;;;;;;;28.49;100.00;98815.22;4837612;29;20332;-88
2023/09/18 11:21:28;;;;;;;7.55;4.78;;;;;;;28.57;100.00;98830.75;4844175;29;20286;-88
2023/09/18 11:24:01;;;;;;;5.68;4.50;;;;;;;28.45;100.00;98824.19;4844293;29;20242;-88
2023/09/18 11:26:51;;;;;;;5.70;4.53;;;;;;;28.50;100.00;98811.31;4841140;29;20249;-87
2023/09/18 11:29:23;;;;;;;6.78;4.18;;;;;;;28.66;100.00;98823.88;4844097;29;20213;-87
2023/09/18 11:31:54;;;;;;;5.32;4.38;;;;;;;28.84;100.00;98808.59;4846295;29;20244;-88
2023/09/18 11:34:32;;;;;;;7.07;4.28;;;;;;;28.95;99.19;98808.81;4828493;29;20205;-88
2023/09/18 11:37:04;;;;;;;4.75;3.95;;;;;;;28.88;99.40;98820.47;4851115;29;20205;-88
2023/09/18 11:39:36;;;;;;;4.68;4.20;;;;;;;29.11;98.13;98809.59;4857369;29;20204;-88
2023/09/18 11:42:15;;;;;;;4.60;4.20;;;;;;;29.09;97.93;98806.38;4841767;29;20244;-87
2023/09/18 11:44:46;;;;;;;4.93;4.50;;;;;;;29.01;97.71;98803.84;4839081;29;20237;-87
2023/09/18 11:47:22;;;;;;;5.03;4.50;;;;;;;29.28;98.10;98797.31;4844426;29;20213;-89
2023/09/18 11:49:59;;;;;;;6.25;4.45;;;;;;;29.50;97.39;98785.56;4837272;29;20240;-87
2023/09/18 11:52:29;;;;;;;7.25;4.45;;;;;;;29.46;98.25;98792.97;4828740;29;20239;-87
2023/09/18 11:55:10;;;;;;;4.75;4.22;;;;;;;29.55;99.36;98795.50;4844408;29;20208;-87
2023/09/18 11:57:43;;;;;;;4.78;4.38;;;;;;;29.58;96.43;98781.75;4832625;29;20211;-86
2023/09/18 12:00:23;;;;;;;6.22;4.32;;;;;;;29.63;93.70;98784.22;4818293;29;20212;-88
2023/09/18 12:02:52;;;;;;;5.72;4.20;;;;;;;29.73;93.84;98772.59;4828606;29;20223;-88
2023/09/18 12:05:26;;;;;;;5.07;4.57;;;;;;;29.77;93.21;98781.72;4831102;29;20247;-88
2023/09/18 12:07:56;;;;;;;4.88;4.22;;;;;;;29.74;91.58;98770.63;4856516;29;20277;-88
2023/09/18 12:10:26;;;;;;;5.43;4.57;;;;;;;29.76;92.90;98771.06;4840978;29;20245;-88
2023/09/18 12:12:54;;;;;;;5.88;4.45;;;;;;;29.75;93.20;98763.94;4839599;29;20231;-88
2023/09/18 12:15:24;;;;;;;5.88;4.40;;;;;;;29.62;92.33;98754.25;4821104;29;20308;-88
2023/09/18 12:18:05;;;;;;;5.97;5.00;;;;;;;29.74;93.52;98745.78;4840395;29;20205;-88
2023/09/18 12:20:34;;;;;;;5.68;4.30;;;;;;;29.59;93.75;98752.19;4844692;29;20750;-88
2023/09/18 12:23:08;;;;;;;5.75;4.55;;;;;;;29.57;94.03;98746.28;4836495;29;20208;-88
2023/09/18 12:25:39;;;;;;;5.20;4.03;;;;;;;29.58;94.18;98748.63;4831958;29;20209;-87
2023/09/18 12:28:11;;;;;;;5.93;4.97;;;;;;;29.60;95.49;98740.00;4839560;29;20209;-87
2023/09/18 12:30:43;;;;;;;4.70;4.22;;;;;;;29.36;94.49;98745.84;4830715;29;20235;-87
2023/09/18 12:33:22;;;;;;;6.18;4.53;;;;;;;29.39;95.32;98740.41;4828426;29;20235;-88